X  Close Metar Aviation Weather Data     KCRE Grand Strand Airport
Temperature
75°F Temperature
72°F Dewpoint
89% Humidity



Wind
8 MPH
13 KM/H
4 M/S
7 KTS



260°
West
Current Conditions

Mostly Scattered Clouds Mostly Scattered Clouds
Pressure 1010.82 (hPa) - 29.85 (inHg)
Visibility 9.9 (mile) - 16 (km)
Airport
Airport-code KCRE

Location: Grand Strand Airport
Distance: 6 (mi)

Metar:
KCRE 040735Z AUTO 26007G17KT 10SM SCT017 24/22 A2985 RMK AO1 T02390222

Time: 04-08-2020 3:35 am EDT